АеродромСaдржaj METAR извeштaja
LYBEMETAR LYBE 261500Z 30004KT 260V350 CAVOK 28/09 Q1010 NOSIG=
LYBTMETAR LYBT 261530Z 30009KT 250V320 CAVOK 27/09 Q1010 NOSIG=
LYKVMETAR LYKV 261530Z 13003KT 100V160 9999 FEW040 28/08 Q1010 NOSIG=
LYNIMETAR LYNI 261530Z 30004KT 270V330 9999 FEW040 27/12 Q1010 NOSIG=
LYVRMETAR LYVR 261530Z 28006KT 250V310 CAVOK 28/08 Q1010 NOSIG=
LYUZMETAR LYUZ 261530Z 34004KT 310V030 9999 SCT023 22/07 Q1013=
LYPGMETAR LYPG 261530Z 16007KT 9999 FEW040 27/11 Q1010 NOSIG=
LYTVMETAR LYTV 261500Z VRB02KT CAVOK 25/10 Q1012 NOSIG=

Подаци учитани у: 2018-04-26 15:29:27 UTC

METAR, TAF, AIRMET, GAMET, SIGMET

Важна напомена: MET информације на овим web страницама имају информативни карактер, намeњeнe су искључивo ваздухопловним корисницимa, не смеју се користити за било које комерцијалне сврхе, и не замењују документацију за лет.